首页
METAR-TAF:

METAR-TAF

机场 :

Sedalia, 密蘇里州, 美国

纬度: 38-42-44N, 经度: 093-10-28W, 海拔: 277米

当前天气观测

该预报发布于1小时和56分钟前的02:53 UTC
风速4节,风向
温度 2°C
湿度 87%
气压 1004 hPa
能見度: 14.5公里
阴天层高于300英尺

METAR: KDMO 260253Z AUTO 09004KT 9SM OVC003 02/00 A2966 RMK AO2 SLP049 T00170000 52014

时间: 22:49 (04:49 UTC)


TAF: 丢失

超过4000个机场的气象观测和天气预报(METAR&TAF报告)。

可查询的气象台以黄色和红色小点在地图上表示。

将鼠标移到小点上方,可查看气象台名称。

然后点击查看天气观测和预报。

如需切换地图:点击带黑十字的绿色按钮放大地图;点击带横线的绿色按钮缩小地图;或者点击绿色箭头查看邻近地区的地图。


METAR-TAF: